Main page
METAR-TAF:

METAR-TAF

Airports :

Tiree Airport

Tiree, Scotland

latitude: 56-30N, longitude: 006-53W, elevation: 12 m

Current weather observation

The report was made 31 minutes ago, at 20:50 UTC
Wind 25 kt from the South
Temperature 11°C
Humidity 87%
Pressure 1007 hPa
Visibility 10 km or more

METAR: EGPU 132050Z AUTO 17025KT 9999 OVC013/// 11/09 Q1007 RERA

Time: 21:21 (21:21 UTC)

Forecast

The report was made 7 hours and 19 minutes ago, at 14:02 UTC
Forecast valid from 13 at 15 UTC to 13 at 19 UTC
Wind 19 kt from the South
Visibility 10 km or more
Scattered clouds at a height of 3000 ft
Probability 40% :
Temporary
from 13 at 17 UTC to 13 at 19 UTC
Wind 22 kt from the South with gusts up to 35 kt
Visibility: 7000 m
rain showers

TAF: EGPU 131402Z 1315/1319 18019KT 9999 SCT030 PROB40 TEMPO 1317/1319 17022G35KT 7000 SHRA

Weather observations and forecasts of more than 4000 airports (METAR and TAF reports).

The available stations are represented by yellow and red dots on the map.

Hover mouse over dot to see the name of the station.

Then click to see weather observations and forecasts.

To change the map : click on the green buttons with a black cross to zoom in, on the green button with a dash to zoom out, or on the green arrows for adjacent maps.


METAR-TAF: